< Typhoon 201727 2018 Season Typhoon 201802 >
Typhoon 201801 (BOLAVEN)
General InformationTrack Information on Google MapsDetailed Wind InformationForecast History on Google MapsAccess Analytics MapList of All Images || NewsDisaster Info.WeblogTrackbackTyphoon FrontTwiphoonTyphoon Now!Typhoon ImaginationJMA Disaster Info. XMLResourceGoogle EarthGE AnimationAtom FeedGeoJSON
Detalied Best Track (Time Zone = UTC)
Year Month Day Hour Lat. Long. Pressure (hPa) Wind (kt) Class Image Chart
2017 12 29 18 7.4 138.0 1006 0 2 Image Chart
2017 12 30 00 8.0 137.5 1006 0 2 Image Chart
2017 12 30 06 8.6 136.9 1004 0 2 Image Chart
2017 12 30 12 9.1 136.1 1006 0 2 Image Chart
2017 12 30 18 9.4 135.2 1004 0 2 Image Chart
2017 12 31 00 9.5 134.3 1006 0 2 Image Chart
2017 12 31 06 9.5 133.3 1004 0 2 Image Chart
2017 12 31 12 9.3 132.3 1004 0 2 Image Chart
2017 12 31 18 9.0 131.0 1004 0 2 Image Chart
2018 1 1 00 8.8 129.9 1004 0 2 Image Chart
2018 1 1 06 8.7 128.4 1002 0 2 Image Chart
2018 1 1 12 9.2 126.7 1004 0 2 Image Chart
2018 1 1 18 9.2 124.5 1004 0 2 Image Chart
2018 1 2 00 9.2 122.4 1004 0 2 Image Chart
2018 1 2 06 9.1 120.8 1004 0 2 Image Chart
2018 1 2 12 9.3 119.2 1004 0 2 Image Chart
2018 1 2 18 10.0 117.3 1004 0 2 Image Chart
2018 1 3 00 10.4 116.0 1002 35 3 Image Chart
2018 1 3 06 11.2 114.8 1002 35 3 Image Chart
2018 1 3 12 11.4 113.3 1002 35 3 Image Chart
2018 1 3 18 11.8 112.2 1002 35 3 Image Chart
2018 1 4 00 12.3 111.0 1006 0 2 Image Chart
2018 1 4 06 12.3 110.0 1008 0 2 Image Chart
Japan Meteorological Agency Best Track Data | Correction Date : 2018-02-21
< Typhoon 201727 2018 Season Typhoon 201802 >

Help